createdAt,value
2023-05-12T00:00:49.095Z,95638.02
2023-05-12T00:01:54.905Z,95636.41
2023-05-12T00:04:37.220Z,95636.79
2023-05-12T00:05:43.750Z,95634.60
2023-05-12T00:06:50.292Z,95638.20
2023-05-12T00:07:56.766Z,95637.90
2023-05-12T00:09:02.997Z,95635.15
2023-05-12T00:10:11.779Z,95635.46
2023-05-12T00:11:17.767Z,95637.58
2023-05-12T00:12:24.034Z,95639.36
2023-05-12T00:13:30.429Z,95641.03
2023-05-12T00:14:36.935Z,95638.52
2023-05-12T00:15:43.387Z,95636.23
2023-05-12T00:16:52.896Z,95639.95
2023-05-12T00:17:59.141Z,95632.50
2023-05-12T00:19:06.223Z,95636.00
2023-05-12T00:20:14.732Z,95640.50
2023-05-12T00:21:21.109Z,95634.88
2023-05-12T00:22:27.683Z,95632.89
2023-05-12T00:23:34.331Z,95637.39
2023-05-12T00:24:41.275Z,95639.40
2023-05-12T00:25:47.964Z,95636.58
2023-05-12T00:26:54.826Z,95635.59
2023-05-12T00:28:01.603Z,95636.17
2023-05-12T00:29:08.577Z,95634.81
2023-05-12T00:30:17.927Z,95640.05
2023-05-12T00:31:23.942Z,95640.93
2023-05-12T00:32:30.130Z,95635.31
2023-05-12T00:33:36.759Z,95635.65
2023-05-12T00:34:43.554Z,95635.51
2023-05-12T00:35:49.646Z,95633.05
2023-05-12T00:36:55.477Z,95631.66
2023-05-12T00:38:01.597Z,95632.94
2023-05-12T00:39:07.834Z,95631.70
2023-05-12T00:40:14.780Z,95630.14
2023-05-12T00:41:20.934Z,95631.38
2023-05-12T00:42:26.721Z,95633.31
2023-05-12T00:43:33.685Z,95638.21
2023-05-12T00:44:40.578Z,95637.63
2023-05-12T00:45:47.723Z,95630.05
2023-05-12T00:46:55.498Z,95630.23
2023-05-12T00:48:01.464Z,95629.88
2023-05-12T00:49:09.628Z,95631.68
2023-05-12T00:50:17.189Z,95631.44
2023-05-12T00:51:26.026Z,95631.67
2023-05-12T00:52:32.490Z,95628.86
2023-05-12T00:53:49.282Z,95627.97
2023-05-12T00:54:57.277Z,95629.61
2023-05-12T00:56:04.148Z,95627.42
2023-05-12T00:57:10.357Z,95628.75
2023-05-12T00:58:17.162Z,95632.45
2023-05-12T00:59:23.369Z,95629.91
2023-05-12T01:00:30.380Z,95631.75
2023-05-12T01:01:38.093Z,95631.69
2023-05-12T01:02:45.404Z,95632.52
2023-05-12T01:03:51.521Z,95628.95
2023-05-12T01:04:57.345Z,95630.81
2023-05-12T01:06:13.173Z,95631.70
2023-05-12T01:07:22.451Z,95631.45
2023-05-12T01:08:29.924Z,95633.90
2023-05-12T01:09:36.697Z,95630.86
2023-05-12T01:10:47.296Z,95633.46
2023-05-12T01:11:53.871Z,95633.78
2023-05-12T01:13:00.105Z,95632.14
2023-05-12T01:14:06.227Z,95631.77
2023-05-12T01:15:14.080Z,95631.50
2023-05-12T01:16:26.569Z,95631.45
2023-05-12T01:17:35.025Z,95630.05
2023-05-12T01:18:43.410Z,95629.44
2023-05-12T01:19:53.843Z,95630.04
2023-05-12T01:21:00.905Z,95629.56
2023-05-12T01:22:07.289Z,95626.60
2023-05-12T01:23:16.179Z,95627.52
2023-05-12T01:24:24.371Z,95627.41
2023-05-12T01:25:34.829Z,95629.96
2023-05-12T01:26:41.624Z,95627.05
2023-05-12T01:27:49.405Z,95624.56
2023-05-12T01:28:57.734Z,95625.83
2023-05-12T01:30:07.975Z,95625.09
2023-05-12T01:31:15.978Z,95623.36
2023-05-12T01:32:23.672Z,95623.80
2023-05-12T01:33:31.811Z,95621.61
2023-05-12T01:34:38.726Z,95622.33
2023-05-12T01:35:45.090Z,95617.67
2023-05-12T01:36:51.284Z,95615.52
2023-05-12T01:37:57.383Z,95616.29
2023-05-12T01:39:03.222Z,95615.01
2023-05-12T01:40:11.220Z,95615.89
2023-05-12T01:41:17.070Z,95612.11
2023-05-12T01:42:22.930Z,95613.33
2023-05-12T01:43:28.952Z,95614.09
2023-05-12T01:44:35.503Z,95614.48
2023-05-12T01:45:41.357Z,95612.92
2023-05-12T01:46:49.576Z,95613.09
2023-05-12T01:47:55.485Z,95619.39
2023-05-12T01:49:01.758Z,95612.63
2023-05-12T01:50:10.334Z,95609.48
2023-05-12T01:51:17.538Z,95614.23
2023-05-12T01:52:25.101Z,95613.75
2023-05-12T01:53:31.290Z,95612.77
2023-05-12T01:54:37.422Z,95613.85
2023-05-12T01:55:44.112Z,95608.33
2023-05-12T01:56:50.197Z,95608.20
2023-05-12T01:57:56.135Z,95603.73
2023-05-12T01:59:02.407Z,95603.49
2023-05-12T02:00:10.645Z,95607.04
2023-05-12T02:01:16.623Z,95607.44
2023-05-12T02:02:22.613Z,95608.84
2023-05-12T02:03:28.719Z,95607.97
2023-05-12T02:04:34.799Z,95605.58
2023-05-12T02:05:41.394Z,95606.94
2023-05-12T02:06:47.515Z,95605.31
2023-05-12T02:07:53.699Z,95600.00
2023-05-12T02:08:59.914Z,95608.40
2023-05-12T02:10:08.101Z,95603.13
2023-05-12T02:11:13.923Z,95602.27
2023-05-12T02:12:19.997Z,95600.16
2023-05-12T02:13:25.997Z,95604.66
2023-05-12T02:14:32.343Z,95604.45
2023-05-12T02:15:38.789Z,95605.27
2023-05-12T02:16:45.077Z,95601.96
2023-05-12T02:17:54.074Z,95605.86
2023-05-12T02:19:00.394Z,95605.33
2023-05-12T02:20:08.783Z,95602.73
2023-05-12T02:21:15.048Z,95610.39
2023-05-12T02:22:21.061Z,95605.36
2023-05-12T02:23:27.005Z,95601.63
2023-05-12T02:24:33.529Z,95604.13
2023-05-12T02:25:39.622Z,95603.70
2023-05-12T02:26:46.029Z,95605.55
2023-05-12T02:27:52.085Z,95600.98
2023-05-12T02:28:58.443Z,95602.98
2023-05-12T02:30:05.088Z,95606.18
2023-05-12T02:31:11.153Z,95606.66
2023-05-12T02:32:17.407Z,95604.59
2023-05-12T02:33:23.629Z,95603.83
2023-05-12T02:34:29.932Z,95604.58
2023-05-12T02:35:36.774Z,95603.48
2023-05-12T02:36:43.072Z,95603.27
2023-05-12T02:37:49.348Z,95603.25
2023-05-12T02:38:55.147Z,95602.76
2023-05-12T02:40:00.985Z,95610.12
2023-05-12T02:41:07.713Z,95611.52
2023-05-12T02:42:13.814Z,95613.14
2023-05-12T02:43:20.137Z,95605.57
2023-05-12T02:44:26.287Z,95608.98
2023-05-12T02:45:32.517Z,95612.75
2023-05-12T02:46:38.769Z,95610.13
2023-05-12T02:47:44.622Z,95612.98
2023-05-12T02:48:50.521Z,95609.44
2023-05-12T02:49:57.289Z,95605.69
2023-05-12T02:51:03.305Z,95603.44
2023-05-12T02:52:09.905Z,95603.39
2023-05-12T02:53:15.814Z,95605.64
2023-05-12T02:54:21.872Z,95611.64
2023-05-12T02:55:30.231Z,95610.70
2023-05-12T02:56:36.292Z,95608.15
2023-05-12T02:57:43.133Z,95608.09
2023-05-12T02:58:49.289Z,95608.05
2023-05-12T02:59:55.457Z,95607.23
2023-05-12T03:01:10.196Z,95607.86
2023-05-12T03:02:17.466Z,95599.39
2023-05-12T03:03:23.481Z,95603.23
2023-05-12T03:04:29.416Z,95603.28
2023-05-12T03:05:35.476Z,95602.23
2023-05-12T03:06:41.601Z,95610.38
2023-05-12T03:07:49.842Z,95609.11
2023-05-12T03:08:56.266Z,95611.39
2023-05-12T03:10:02.235Z,95616.55
2023-05-12T03:11:08.338Z,95617.03
2023-05-12T03:12:14.697Z,95612.98
2023-05-12T03:13:20.620Z,95611.37
2023-05-12T03:14:28.646Z,95612.36
2023-05-12T03:15:34.687Z,95618.67
2023-05-12T03:16:40.908Z,95620.31
2023-05-12T03:17:47.227Z,95620.70
2023-05-12T03:18:53.819Z,95615.92
2023-05-12T03:20:00.321Z,95616.36
2023-05-12T03:21:07.087Z,95617.35
2023-05-12T03:22:13.670Z,95605.82
2023-05-12T03:23:19.817Z,95617.13
2023-05-12T03:24:25.920Z,95615.31
2023-05-12T03:25:32.367Z,95615.16
2023-05-12T03:26:38.644Z,95619.66
2023-05-12T03:27:44.583Z,95622.02
2023-05-12T03:28:50.387Z,95616.33
2023-05-12T03:29:56.387Z,95614.48
2023-05-12T03:31:02.665Z,95615.02
2023-05-12T03:32:09.495Z,95615.56
2023-05-12T03:33:15.358Z,95615.73
2023-05-12T03:34:21.302Z,95610.34
2023-05-12T03:35:27.938Z,95615.09
2023-05-12T03:36:34.007Z,95620.71
2023-05-12T03:37:40.029Z,95622.87
2023-05-12T03:38:45.997Z,95624.30
2023-05-12T03:39:52.158Z,95620.10
2023-05-12T03:41:06.738Z,95621.70
2023-05-12T03:42:13.630Z,95618.58
2023-05-12T03:43:19.807Z,95622.08
2023-05-12T03:44:25.840Z,95621.43
2023-05-12T03:45:32.128Z,95622.88
2023-05-12T03:46:38.112Z,95626.80
2023-05-12T03:47:44.085Z,95625.73
2023-05-12T03:48:50.070Z,95623.70
2023-05-12T03:49:56.214Z,95625.17
2023-05-12T03:51:02.054Z,95626.56
2023-05-12T03:52:08.606Z,95628.54
2023-05-12T03:53:14.504Z,95632.95
2023-05-12T03:54:20.285Z,95632.69
2023-05-12T03:55:26.148Z,95631.80
2023-05-12T03:56:32.247Z,95637.77
2023-05-12T03:57:38.771Z,95639.96
2023-05-12T03:58:47.422Z,95634.75
2023-05-12T03:59:53.522Z,95636.63
2023-05-12T04:01:01.583Z,95637.85
2023-05-12T04:02:11.894Z,95635.96
2023-05-12T04:03:17.929Z,95637.05
2023-05-12T04:04:24.397Z,95638.86
2023-05-12T04:05:30.308Z,95635.90
2023-05-12T04:06:37.000Z,95637.61
2023-05-12T04:07:42.712Z,95642.02
2023-05-12T04:08:48.785Z,95636.55
2023-05-12T04:09:55.119Z,95634.42
2023-05-12T04:11:02.386Z,95636.52
2023-05-12T04:12:09.988Z,95632.92
2023-05-12T04:13:15.908Z,95634.36
2023-05-12T04:14:31.790Z,95639.62
2023-05-12T04:15:45.940Z,95637.38
2023-05-12T04:16:52.178Z,95641.35
2023-05-12T04:17:58.478Z,95641.10
2023-05-12T04:19:04.985Z,95635.09
2023-05-12T04:20:13.408Z,95637.17
2023-05-12T04:21:19.758Z,95640.58
2023-05-12T04:22:26.145Z,95643.55
2023-05-12T04:23:32.299Z,95642.30
2023-05-12T04:24:40.494Z,95639.20
2023-05-12T04:25:46.951Z,95637.64
2023-05-12T04:26:53.209Z,95638.25
2023-05-12T04:27:59.695Z,95638.41
2023-05-12T04:29:05.631Z,95638.95
2023-05-12T04:30:13.640Z,95634.52
2023-05-12T04:31:19.596Z,95632.27
2023-05-12T04:32:26.362Z,95638.73
2023-05-12T04:33:32.890Z,95639.57
2023-05-12T04:34:38.646Z,95642.06
2023-05-12T04:35:45.200Z,95634.45
2023-05-12T04:36:51.635Z,95632.85
2023-05-12T04:37:58.016Z,95627.90
2023-05-12T04:39:04.810Z,95627.68
2023-05-12T04:40:13.003Z,95632.33
2023-05-12T04:41:19.164Z,95634.02
2023-05-12T04:42:24.873Z,95635.73
2023-05-12T04:44:38.280Z,95629.43
2023-05-12T04:45:44.376Z,95630.35
2023-05-12T04:46:53.540Z,95637.66
2023-05-12T04:47:58.478Z,95633.08
2023-05-12T04:49:07.102Z,95632.34
2023-05-12T04:50:14.501Z,95638.02
2023-05-12T04:51:20.656Z,95637.25
2023-05-12T04:52:27.327Z,95633.52
2023-05-12T04:53:35.023Z,95626.41
2023-05-12T04:54:41.332Z,95624.61
2023-05-12T04:55:47.620Z,95630.66
2023-05-12T04:56:53.999Z,95628.67
2023-05-12T04:57:59.714Z,95629.94
2023-05-12T04:59:06.877Z,95627.09
2023-05-12T05:00:15.528Z,95626.13
2023-05-12T05:01:21.670Z,95628.20
2023-05-12T05:02:28.102Z,95629.17
2023-05-12T05:03:35.345Z,95631.15
2023-05-12T05:04:41.553Z,95636.73
2023-05-12T05:05:49.333Z,95643.16
2023-05-12T05:06:56.236Z,95640.61
2023-05-12T05:08:02.025Z,95634.95
2023-05-12T05:09:09.023Z,95630.59
2023-05-12T05:10:15.398Z,95638.15
2023-05-12T05:11:23.107Z,95637.08
2023-05-12T05:12:28.811Z,95640.17
2023-05-12T05:13:35.416Z,95639.55
2023-05-12T05:14:41.279Z,95635.70
2023-05-12T05:15:53.370Z,95634.16
2023-05-12T05:17:00.547Z,95637.59
2023-05-12T05:18:07.226Z,95637.02
2023-05-12T05:19:49.888Z,95639.60
2023-05-12T05:21:01.106Z,95635.86
2023-05-12T05:22:07.475Z,95637.73
2023-05-12T05:23:14.054Z,95639.09
2023-05-12T05:24:19.801Z,95636.34
2023-05-12T05:25:27.131Z,95634.90
2023-05-12T05:26:33.270Z,95635.18
2023-05-12T05:27:39.791Z,95636.50
2023-05-12T05:28:46.037Z,95639.55
2023-05-12T05:29:52.597Z,95638.98
2023-05-12T05:30:58.726Z,95638.86
2023-05-12T05:32:05.556Z,95641.06
2023-05-12T05:33:13.338Z,95643.09
2023-05-12T05:34:22.265Z,95638.44
2023-05-12T05:35:29.108Z,95637.55
2023-05-12T05:36:35.563Z,95640.55
2023-05-12T05:37:42.435Z,95643.98
2023-05-12T05:38:48.992Z,95651.74
2023-05-12T05:39:55.452Z,95640.81
2023-05-12T05:41:01.290Z,95645.02
2023-05-12T05:42:08.513Z,95645.43
2023-05-12T05:43:15.156Z,95650.27
2023-05-12T05:44:21.695Z,95656.79
2023-05-12T05:45:28.737Z,95653.63
2023-05-12T05:46:34.837Z,95649.57
2023-05-12T05:47:44.331Z,95655.67
2023-05-12T05:48:50.354Z,95657.23
2023-05-12T05:49:56.422Z,95662.38
2023-05-12T05:51:03.480Z,95659.23
2023-05-12T05:52:10.872Z,95660.03
2023-05-12T05:53:18.631Z,95662.58
2023-05-12T05:54:26.486Z,95664.79
2023-05-12T05:55:33.474Z,95661.11
2023-05-12T05:56:39.814Z,95659.61
2023-05-12T05:57:46.633Z,95659.66
2023-05-12T05:58:53.765Z,95659.80
2023-05-12T06:00:00.399Z,95662.06
2023-05-12T06:01:07.461Z,95659.86
2023-05-12T06:02:14.601Z,95661.25
2023-05-12T06:03:20.884Z,95663.55
2023-05-12T06:04:29.635Z,95662.34
2023-05-12T06:05:35.897Z,95665.06
2023-05-12T06:06:42.057Z,95671.71
2023-05-12T06:07:48.047Z,95660.44
2023-05-12T06:08:56.405Z,95661.34
2023-05-12T06:10:03.150Z,95664.30
2023-05-12T06:11:09.421Z,95658.92
2023-05-12T06:12:15.825Z,95657.49
2023-05-12T06:13:22.301Z,95658.29
2023-05-12T06:14:28.326Z,95662.02
2023-05-12T06:15:35.011Z,95659.98
2023-05-12T06:16:40.860Z,95661.39
2023-05-12T06:17:48.524Z,95660.89
2023-05-12T06:18:54.558Z,95660.77
2023-05-12T06:20:00.586Z,95661.36
2023-05-12T06:21:07.110Z,95662.46
2023-05-12T06:22:13.019Z,95661.19
2023-05-12T06:23:18.938Z,95664.36
2023-05-12T06:24:25.605Z,95668.88
2023-05-12T06:25:33.330Z,95668.35
2023-05-12T06:26:39.765Z,95670.84
2023-05-12T06:27:45.795Z,95670.70
2023-05-12T06:28:52.058Z,95665.48
2023-05-12T06:29:58.235Z,95665.77
2023-05-12T06:31:06.886Z,95665.13
2023-05-12T06:32:12.883Z,95665.09
2023-05-12T06:33:18.853Z,95667.46
2023-05-12T06:34:26.092Z,95669.86
2023-05-12T06:35:32.269Z,95669.62
2023-05-12T06:36:38.773Z,95665.70
2023-05-12T06:37:49.948Z,95671.17
2023-05-12T06:38:56.551Z,95671.89
2023-05-12T06:40:03.315Z,95676.41
2023-05-12T06:41:09.722Z,95674.16
2023-05-12T06:42:15.967Z,95677.18
2023-05-12T06:43:23.718Z,95677.77
2023-05-12T06:44:29.610Z,95677.19
2023-05-12T06:45:36.146Z,95677.25
2023-05-12T06:46:42.771Z,95679.75
2023-05-12T06:47:49.006Z,95682.16
2023-05-12T06:49:00.628Z,95680.97
2023-05-12T06:50:08.921Z,95679.43
2023-05-12T06:51:15.827Z,95679.85
2023-05-12T06:52:24.043Z,95682.60
2023-05-12T06:53:32.537Z,95683.84
2023-05-12T06:54:38.627Z,95684.19
2023-05-12T06:55:47.628Z,95682.12
2023-05-12T06:56:53.724Z,95684.52
2023-05-12T06:57:59.945Z,95684.17
2023-05-12T06:59:06.539Z,95686.94
2023-05-12T07:00:16.361Z,95687.15
2023-05-12T07:01:22.349Z,95689.88
2023-05-12T07:02:28.928Z,95688.27
2023-05-12T07:03:35.529Z,95689.34
2023-05-12T07:04:45.704Z,95692.24
2023-05-12T07:05:52.439Z,95692.97
2023-05-12T07:06:59.021Z,95691.52
2023-05-12T07:08:06.022Z,95690.64
2023-05-12T07:09:11.775Z,95689.95
2023-05-12T07:10:17.902Z,95691.80
2023-05-12T07:11:24.171Z,95694.44
2023-05-12T07:12:32.451Z,95690.73
2023-05-12T07:13:39.217Z,95691.11
2023-05-12T07:14:45.297Z,95691.03
2023-05-12T07:15:51.677Z,95692.21
2023-05-12T07:16:58.238Z,95690.44
2023-05-12T07:18:06.036Z,95691.02
2023-05-12T07:19:12.503Z,95690.04
2023-05-12T07:20:19.308Z,95688.41
2023-05-12T07:21:25.307Z,95688.91
2023-05-12T07:22:32.800Z,95691.48
2023-05-12T07:23:40.153Z,95689.73
2023-05-12T07:24:46.886Z,95690.38
2023-05-12T07:25:53.143Z,95688.16
2023-05-12T07:26:59.178Z,95692.38
2023-05-12T07:28:05.442Z,95697.02
2023-05-12T07:29:13.804Z,95693.10
2023-05-12T07:30:22.461Z,95696.13
2023-05-12T07:31:28.967Z,95693.80
2023-05-12T07:32:35.503Z,95695.79
2023-05-12T07:33:41.680Z,95697.52
2023-05-12T07:34:48.413Z,95697.84
2023-05-12T07:35:54.645Z,95697.84
2023-05-12T07:37:02.640Z,95703.35
2023-05-12T07:38:10.043Z,95696.77
2023-05-12T07:39:19.382Z,95702.42
2023-05-12T07:40:26.152Z,95696.36
2023-05-12T07:41:34.532Z,95696.17
2023-05-12T07:42:41.150Z,95700.64
2023-05-12T07:43:47.016Z,95701.16
2023-05-12T07:44:52.870Z,95707.23
2023-05-12T07:46:01.121Z,95701.59
2023-05-12T07:47:08.007Z,95700.79
2023-05-12T07:48:14.104Z,95705.52
2023-05-12T07:49:20.637Z,95703.80
2023-05-12T07:50:26.826Z,95705.33
2023-05-12T07:51:33.139Z,95704.73
2023-05-12T07:52:45.829Z,95703.45
2023-05-12T07:53:52.212Z,95709.75
2023-05-12T07:54:59.149Z,95701.80
2023-05-12T07:56:05.811Z,95701.49
2023-05-12T07:57:12.212Z,95702.63
2023-05-12T07:58:18.438Z,95707.07
2023-05-12T07:59:24.694Z,95711.02
2023-05-12T08:00:31.154Z,95705.84
2023-05-12T08:01:37.298Z,95706.00
2023-05-12T08:02:43.886Z,95700.13
2023-05-12T08:03:51.637Z,95701.73
2023-05-12T08:04:58.481Z,95704.36
2023-05-12T08:06:07.371Z,95705.30
2023-05-12T08:07:13.335Z,95705.52
2023-05-12T08:08:19.742Z,95712.65
2023-05-12T08:09:26.207Z,95711.46
2023-05-12T08:10:33.390Z,95709.77
2023-05-12T08:11:39.847Z,95710.80
2023-05-12T08:12:45.880Z,95709.67
2023-05-12T08:13:52.780Z,95710.25
2023-05-12T08:14:59.015Z,95705.15
2023-05-12T08:16:06.073Z,95706.15
2023-05-12T08:17:12.080Z,95708.34
2023-05-12T08:18:17.882Z,95711.20
2023-05-12T08:19:24.047Z,95708.27
2023-05-12T08:20:30.042Z,95712.59
2023-05-12T08:21:37.036Z,95707.73
2023-05-12T08:22:44.209Z,95712.02
2023-05-12T08:23:50.523Z,95707.13
2023-05-12T08:24:56.447Z,95711.20
2023-05-12T08:26:02.572Z,95715.42
2023-05-12T08:27:09.479Z,95713.48
2023-05-12T08:28:15.896Z,95712.10
2023-05-12T08:29:22.869Z,95711.36
2023-05-12T08:30:29.405Z,95706.91
2023-05-12T08:31:35.619Z,95709.75
2023-05-12T08:32:42.096Z,95713.83
2023-05-12T08:33:51.828Z,95714.91
2023-05-12T08:35:06.915Z,95721.44
2023-05-12T08:36:12.951Z,95715.36
2023-05-12T08:37:18.906Z,95715.98
2023-05-12T08:38:25.075Z,95716.92
2023-05-12T08:39:32.650Z,95717.61
2023-05-12T08:40:44.276Z,95716.93
2023-05-12T08:41:59.400Z,95714.09
2023-05-12T08:43:20.657Z,95716.64
2023-05-12T08:44:27.687Z,95721.09
2023-05-12T08:45:36.178Z,95720.08
2023-05-12T08:46:42.403Z,95720.25
2023-05-12T08:47:50.581Z,95718.27
2023-05-12T08:48:59.261Z,95720.38
2023-05-12T08:50:08.398Z,95720.63
2023-05-12T08:51:15.845Z,95720.54
2023-05-12T08:52:23.185Z,95727.24
2023-05-12T08:53:30.305Z,95724.49
2023-05-12T08:54:48.553Z,95724.23
2023-05-12T08:57:29.590Z,95720.96
2023-05-12T08:58:41.723Z,95725.34
2023-05-12T08:59:48.914Z,95724.58
2023-05-12T09:00:55.014Z,95722.48
2023-05-12T09:02:04.505Z,95722.58
2023-05-12T09:03:13.475Z,95723.92
2023-05-12T09:04:18.211Z,95723.36
2023-05-12T09:05:27.413Z,95723.39
2023-05-12T09:06:34.316Z,95724.76
2023-05-12T09:07:45.288Z,95718.33
2023-05-12T09:08:51.902Z,95723.35
2023-05-12T09:10:01.107Z,95721.48
2023-05-12T09:11:09.582Z,95726.96
2023-05-12T09:12:19.732Z,95725.96
2023-05-12T09:13:37.590Z,95730.91
2023-05-12T09:14:48.192Z,95732.02
2023-05-12T09:15:57.186Z,95730.59
2023-05-12T09:17:07.161Z,95727.71
2023-05-12T09:18:13.900Z,95723.38
2023-05-12T09:19:23.480Z,95722.39
2023-05-12T09:20:31.967Z,95727.69
2023-05-12T09:21:37.547Z,95726.56
2023-05-12T09:22:44.014Z,95732.48
2023-05-12T09:24:01.390Z,95726.83
2023-05-12T09:25:19.945Z,95726.31
2023-05-12T09:26:27.790Z,95728.70
2023-05-12T09:27:34.011Z,95727.09
2023-05-12T09:28:40.900Z,95725.18
2023-05-12T09:29:58.649Z,95721.02
2023-05-12T09:31:20.223Z,95725.34
2023-05-12T09:32:43.348Z,95723.02
2023-05-12T09:33:53.489Z,95727.59
2023-05-12T09:35:06.827Z,95720.38
2023-05-12T09:36:17.146Z,95717.44
2023-05-12T09:37:32.775Z,95720.35
2023-05-12T09:38:39.107Z,95721.66
2023-05-12T09:39:46.386Z,95727.90
2023-05-12T09:40:53.612Z,95732.24
2023-05-12T09:42:00.049Z,95733.73
2023-05-12T09:43:08.073Z,95730.88
2023-05-12T09:44:17.135Z,95730.47
2023-05-12T09:45:24.826Z,95733.38
2023-05-12T09:46:31.298Z,95732.26
2023-05-12T09:47:39.754Z,95731.09
2023-05-12T09:48:48.712Z,95737.29
2023-05-12T09:49:57.714Z,95738.69
2023-05-12T09:51:04.114Z,95744.83
2023-05-12T09:52:10.494Z,95749.71
2023-05-12T09:53:18.113Z,95744.01
2023-05-12T09:54:31.496Z,95748.16
2023-05-12T09:55:37.560Z,95753.47
2023-05-12T09:56:44.598Z,95754.09
2023-05-12T09:57:52.829Z,95743.42
2023-05-12T09:58:59.206Z,95754.93
2023-05-12T10:00:21.163Z,95751.67
2023-05-12T10:01:36.179Z,95749.60
2023-05-12T10:02:44.599Z,95751.10
2023-05-12T10:03:55.064Z,95756.51
2023-05-12T10:05:07.164Z,95752.95
2023-05-12T10:06:22.920Z,95752.80
2023-05-12T10:07:31.729Z,95753.33
2023-05-12T10:08:42.448Z,95748.60
2023-05-12T10:09:49.752Z,95751.65
2023-05-12T10:10:58.179Z,95746.41
2023-05-12T10:12:07.176Z,95745.40
2023-05-12T10:13:14.252Z,95745.31
2023-05-12T10:14:22.892Z,95746.44
2023-05-12T10:15:31.048Z,95746.01
2023-05-12T10:16:39.402Z,95743.30
2023-05-12T10:17:47.040Z,95742.02
2023-05-12T10:18:54.567Z,95739.55
2023-05-12T10:20:02.416Z,95737.09
2023-05-12T10:21:09.317Z,95743.44
2023-05-12T10:22:20.042Z,95741.15
2023-05-12T10:23:27.614Z,95748.11
2023-05-12T10:24:35.112Z,95746.42
2023-05-12T10:25:44.141Z,95750.66
2023-05-12T10:26:51.154Z,95754.83
2023-05-12T10:27:59.321Z,95758.27
2023-05-12T10:29:06.369Z,95753.73
2023-05-12T10:30:16.748Z,95766.64
2023-05-12T10:31:23.538Z,95767.88
2023-05-12T10:32:30.165Z,95770.85
2023-05-12T10:33:36.396Z,95768.23
2023-05-12T10:34:43.569Z,95770.98
2023-05-12T10:35:52.282Z,95772.02
2023-05-12T10:37:00.148Z,95772.14
2023-05-12T10:38:10.163Z,95771.44
2023-05-12T10:39:18.032Z,95772.67
2023-05-12T10:40:29.205Z,95774.93
2023-05-12T10:41:36.459Z,95775.77
2023-05-12T10:42:44.679Z,95775.87
2023-05-12T10:43:52.702Z,95771.77
2023-05-12T10:45:00.157Z,95776.00
2023-05-12T10:46:17.408Z,95778.92
2023-05-12T10:47:36.843Z,95780.32
2023-05-12T10:48:58.495Z,95778.83
2023-05-12T10:50:05.689Z,95783.09
2023-05-12T10:51:12.949Z,95781.91
2023-05-12T10:52:22.013Z,95784.41
2023-05-12T10:53:47.722Z,95779.98
2023-05-12T10:55:03.102Z,95776.05
2023-05-12T10:56:10.874Z,95771.91
2023-05-12T10:57:22.233Z,95778.91
2023-05-12T10:58:29.042Z,95779.16
2023-05-12T10:59:36.256Z,95780.16
2023-05-12T11:00:50.759Z,95779.61
2023-05-12T11:02:03.938Z,95779.08
2023-05-12T11:03:18.929Z,95782.44
2023-05-12T11:04:41.033Z,95773.59
2023-05-12T11:05:59.181Z,95779.56
2023-05-12T11:07:12.199Z,95786.05
2023-05-12T11:08:19.915Z,95792.13
2023-05-12T11:09:27.354Z,95789.09
2023-05-12T11:10:35.680Z,95788.55
2023-05-12T11:11:45.639Z,95791.69
2023-05-12T11:12:53.646Z,95786.64
2023-05-12T11:14:00.561Z,95793.80
2023-05-12T11:15:08.807Z,95797.58
2023-05-12T11:16:16.723Z,95796.88
2023-05-12T11:17:23.420Z,95796.83
2023-05-12T11:18:29.952Z,95796.31
2023-05-12T11:19:37.964Z,95801.59
2023-05-12T11:20:44.046Z,95808.04
2023-05-12T11:21:49.912Z,95809.52
2023-05-12T11:22:56.132Z,95809.66
2023-05-12T11:24:03.430Z,95811.33
2023-05-12T11:25:14.175Z,95811.66
2023-05-12T11:26:21.421Z,95814.22
2023-05-12T11:27:28.800Z,95816.10
2023-05-12T11:28:43.619Z,95816.51
2023-05-12T11:29:58.430Z,95816.64
2023-05-12T11:31:04.744Z,95816.52
2023-05-12T11:32:13.163Z,95812.86
2023-05-12T11:33:22.536Z,95813.17
2023-05-12T11:34:29.113Z,95811.00
2023-05-12T11:35:35.200Z,95812.84
2023-05-12T11:36:42.727Z,95810.74
2023-05-12T11:37:48.937Z,95809.40
2023-05-12T11:38:55.166Z,95808.20
2023-05-12T11:40:02.731Z,95810.34
2023-05-12T11:41:08.535Z,95808.80
2023-05-12T11:42:17.774Z,95807.27
2023-05-12T11:43:28.381Z,95805.57
2023-05-12T11:44:34.668Z,95803.92
2023-05-12T11:45:42.792Z,95800.41
2023-05-12T11:47:03.874Z,95803.30
2023-05-12T11:48:12.583Z,95799.95
2023-05-12T11:49:19.157Z,95803.65
2023-05-12T11:50:26.525Z,95799.63
2023-05-12T11:51:32.493Z,95799.34
2023-05-12T11:52:39.434Z,95796.34
2023-05-12T11:53:46.892Z,95795.66
2023-05-12T11:54:56.975Z,95795.74
2023-05-12T11:56:03.541Z,95795.39
2023-05-12T11:57:09.612Z,95791.02
2023-05-12T11:58:21.985Z,95792.08
2023-05-12T11:59:34.035Z,95787.08
2023-05-12T12:00:40.484Z,95785.56
2023-05-12T12:01:48.038Z,95786.35
2023-05-12T12:02:54.444Z,95786.13
2023-05-12T12:04:01.062Z,95783.80
2023-05-12T12:05:18.621Z,95786.30
2023-05-12T12:06:25.391Z,95781.51
2023-05-12T12:07:33.197Z,95784.88
2023-05-12T12:08:49.266Z,95783.91
2023-05-12T12:09:55.525Z,95785.42
2023-05-12T12:11:03.674Z,95786.89
2023-05-12T12:12:12.699Z,95786.88
2023-05-12T12:13:23.890Z,95781.98
2023-05-12T12:14:31.082Z,95782.77
2023-05-12T12:15:37.229Z,95777.02
2023-05-12T12:16:45.130Z,95779.14
2023-05-12T12:17:51.491Z,95787.90
2023-05-12T12:18:58.709Z,95787.69
2023-05-12T12:20:06.240Z,95781.91
2023-05-12T12:21:12.357Z,95783.39
2023-05-12T12:22:18.648Z,95789.10
2023-05-12T12:23:25.425Z,95793.19
2023-05-12T12:24:31.566Z,95785.74
2023-05-12T12:25:37.865Z,95789.84
2023-05-12T12:26:43.769Z,95788.36
2023-05-12T12:27:52.933Z,95788.92
2023-05-12T12:28:59.353Z,95792.03
2023-05-12T12:30:06.977Z,95792.09
2023-05-12T12:31:14.325Z,95785.76
2023-05-12T12:32:20.661Z,95776.23
2023-05-12T12:33:27.278Z,95780.08
2023-05-12T12:34:34.017Z,95778.52
2023-05-12T12:35:39.803Z,95777.27
2023-05-12T12:36:47.422Z,95777.18
2023-05-12T12:37:53.360Z,95773.16
2023-05-12T12:39:00.161Z,95780.90
2023-05-12T12:40:08.764Z,95782.81
2023-05-12T12:41:15.106Z,95782.83
2023-05-12T12:42:21.057Z,95783.59
2023-05-12T12:43:27.200Z,95775.42
2023-05-12T12:44:33.089Z,95773.87
2023-05-12T12:45:38.870Z,95775.64
2023-05-12T12:46:44.659Z,95774.64
2023-05-12T12:47:52.710Z,95772.59
2023-05-12T12:48:58.969Z,95768.14
2023-05-12T12:50:07.367Z,95769.97
2023-05-12T12:51:13.753Z,95773.09
2023-05-12T12:52:19.673Z,95770.02
2023-05-12T12:53:25.510Z,95770.44
2023-05-12T12:54:31.291Z,95770.42
2023-05-12T12:55:37.716Z,95768.54
2023-05-12T12:56:44.780Z,95766.98
2023-05-12T12:57:51.151Z,95766.48
2023-05-12T12:58:56.989Z,95767.33
2023-05-12T13:00:04.747Z,95764.76
2023-05-12T13:01:10.960Z,95762.51
2023-05-12T13:02:17.443Z,95760.34
2023-05-12T13:03:24.215Z,95758.39
2023-05-12T13:04:30.616Z,95755.48
2023-05-12T13:05:36.385Z,95753.69
2023-05-12T13:06:42.311Z,95758.12
2023-05-12T13:07:48.175Z,95754.66
2023-05-12T13:08:54.549Z,95749.71
2023-05-12T13:10:01.092Z,95749.45
2023-05-12T13:11:09.141Z,95747.41
2023-05-12T13:12:14.988Z,95747.45
2023-05-12T13:13:21.204Z,95745.29
2023-05-12T13:14:27.386Z,95746.19
2023-05-12T13:15:34.217Z,95744.49
2023-05-12T13:16:40.210Z,95744.24
2023-05-12T13:17:47.438Z,95741.92
2023-05-12T13:18:53.447Z,95742.85